sensor_id;sensor_type;location;lat;lon;timestamp;P1;durP1;ratioP1;P2;durP2;ratioP2
21034;SDS011;10676;50.848;3.272;2022-12-29T00:01:39;7.05;;;6.68;;
21034;SDS011;10676;50.848;3.272;2022-12-29T00:04:05;8.15;;;7.75;;
21034;SDS011;10676;50.848;3.272;2022-12-29T00:06:31;8.10;;;7.78;;
21034;SDS011;10676;50.848;3.272;2022-12-29T00:08:57;6.90;;;6.60;;
21034;SDS011;10676;50.848;3.272;2022-12-29T00:11:24;8.77;;;8.27;;
21034;SDS011;10676;50.848;3.272;2022-12-29T00:13:51;7.57;;;7.13;;
21034;SDS011;10676;50.848;3.272;2022-12-29T00:16:36;8.50;;;8.00;;
21034;SDS011;10676;50.848;3.272;2022-12-29T00:19:02;7.35;;;6.88;;
21034;SDS011;10676;50.848;3.272;2022-12-29T00:21:29;8.07;;;7.43;;
21034;SDS011;10676;50.848;3.272;2022-12-29T00:24:20;7.82;;;7.28;;
21034;SDS011;10676;50.848;3.272;2022-12-29T00:27:13;7.20;;;6.80;;
21034;SDS011;10676;50.848;3.272;2022-12-29T00:29:56;9.10;;;8.52;;
21034;SDS011;10676;50.848;3.272;2022-12-29T00:32:41;9.38;;;8.70;;
21034;SDS011;10676;50.848;3.272;2022-12-29T00:35:28;7.65;;;7.03;;
21034;SDS011;10676;50.848;3.272;2022-12-29T00:37:55;9.90;;;9.10;;
21034;SDS011;10676;50.848;3.272;2022-12-29T00:40:46;10.35;;;7.97;;
21034;SDS011;10676;50.848;3.272;2022-12-29T00:43:30;8.23;;;7.82;;
21034;SDS011;10676;50.848;3.272;2022-12-29T00:46:14;8.23;;;7.47;;
21034;SDS011;10676;50.848;3.272;2022-12-29T00:48:40;9.57;;;9.02;;
21034;SDS011;10676;50.848;3.272;2022-12-29T00:51:24;8.52;;;7.85;;
21034;SDS011;10676;50.848;3.272;2022-12-29T00:53:49;7.78;;;7.18;;
21034;SDS011;10676;50.848;3.272;2022-12-29T00:56:15;7.72;;;7.32;;
21034;SDS011;10676;50.848;3.272;2022-12-29T00:58:41;7.18;;;6.57;;
21034;SDS011;10676;50.848;3.272;2022-12-29T01:01:07;7.82;;;7.22;;
21034;SDS011;10676;50.848;3.272;2022-12-29T01:03:34;7.90;;;7.30;;
21034;SDS011;10676;50.848;3.272;2022-12-29T01:06:01;7.30;;;6.80;;
21034;SDS011;10676;50.848;3.272;2022-12-29T01:08:28;8.38;;;7.70;;
21034;SDS011;10676;50.848;3.272;2022-12-29T01:11:01;7.78;;;7.20;;
21034;SDS011;10676;50.848;3.272;2022-12-29T01:13:31;8.48;;;7.82;;
21034;SDS011;10676;50.848;3.272;2022-12-29T01:15:57;8.40;;;7.57;;
21034;SDS011;10676;50.848;3.272;2022-12-29T01:18:23;13.43;;;12.48;;
21034;SDS011;10676;50.848;3.272;2022-12-29T01:20:50;8.43;;;7.78;;
21034;SDS011;10676;50.848;3.272;2022-12-29T01:23:16;8.98;;;8.48;;
21034;SDS011;10676;50.848;3.272;2022-12-29T01:25:42;10.00;;;9.18;;
21034;SDS011;10676;50.848;3.272;2022-12-29T01:28:07;10.95;;;10.13;;
21034;SDS011;10676;50.848;3.272;2022-12-29T01:30:34;10.45;;;9.60;;
21034;SDS011;10676;50.848;3.272;2022-12-29T01:33:00;9.45;;;8.55;;
21034;SDS011;10676;50.848;3.272;2022-12-29T01:35:26;10.95;;;10.10;;
21034;SDS011;10676;50.848;3.272;2022-12-29T01:37:52;10.30;;;9.30;;
21034;SDS011;10676;50.848;3.272;2022-12-29T01:40:17;12.30;;;11.23;;
21034;SDS011;10676;50.848;3.272;2022-12-29T01:42:43;10.13;;;9.32;;
21034;SDS011;10676;50.848;3.272;2022-12-29T01:45:09;10.77;;;9.82;;
21034;SDS011;10676;50.848;3.272;2022-12-29T01:47:53;11.07;;;9.05;;
21034;SDS011;10676;50.848;3.272;2022-12-29T01:50:26;9.00;;;8.38;;
21034;SDS011;10676;50.848;3.272;2022-12-29T01:55:48;10.23;;;9.20;;
21034;SDS011;10676;50.848;3.272;2022-12-29T01:58:19;10.98;;;10.05;;
21034;SDS011;10676;50.848;3.272;2022-12-29T02:00:47;11.68;;;10.75;;
21034;SDS011;10676;50.848;3.272;2022-12-29T02:03:13;10.55;;;9.50;;
21034;SDS011;10676;50.848;3.272;2022-12-29T02:05:53;10.60;;;9.80;;
21034;SDS011;10676;50.848;3.272;2022-12-29T02:08:23;9.82;;;9.05;;
21034;SDS011;10676;50.848;3.272;2022-12-29T02:10:52;9.75;;;9.15;;
21034;SDS011;10676;50.848;3.272;2022-12-29T02:13:20;9.68;;;8.85;;
21034;SDS011;10676;50.848;3.272;2022-12-29T02:30:02;11.32;;;10.45;;
21034;SDS011;10676;50.848;3.272;2022-12-29T02:48:31;13.25;;;11.80;;
21034;SDS011;10676;50.848;3.272;2022-12-29T02:51:43;10.85;;;10.05;;
21034;SDS011;10676;50.848;3.272;2022-12-29T02:54:09;13.15;;;11.88;;
21034;SDS011;10676;50.848;3.272;2022-12-29T02:56:53;12.73;;;11.48;;
21034;SDS011;10676;50.848;3.272;2022-12-29T02:59:19;11.30;;;10.15;;
21034;SDS011;10676;50.848;3.272;2022-12-29T03:04:45;11.93;;;10.68;;
21034;SDS011;10676;50.848;3.272;2022-12-29T03:07:47;12.60;;;11.32;;
21034;SDS011;10676;50.848;3.272;2022-12-29T03:21:19;18.33;;;16.80;;
21034;SDS011;10676;50.848;3.272;2022-12-29T03:24:19;14.68;;;13.48;;
21034;SDS011;10676;50.848;3.272;2022-12-29T03:26:50;15.60;;;14.50;;
21034;SDS011;10676;50.848;3.272;2022-12-29T03:29:19;14.63;;;13.48;;
21034;SDS011;10676;50.848;3.272;2022-12-29T03:31:46;19.20;;;17.48;;
21034;SDS011;10676;50.848;3.272;2022-12-29T03:34:13;18.10;;;16.50;;
21034;SDS011;10676;50.848;3.272;2022-12-29T03:36:47;19.08;;;17.48;;
21034;SDS011;10676;50.848;3.272;2022-12-29T03:39:21;16.25;;;14.73;;
21034;SDS011;10676;50.848;3.272;2022-12-29T03:41:48;17.08;;;15.73;;
21034;SDS011;10676;50.848;3.272;2022-12-29T03:44:19;17.80;;;16.33;;
21034;SDS011;10676;50.848;3.272;2022-12-29T03:46:46;12.55;;;10.80;;
21034;SDS011;10676;50.848;3.272;2022-12-29T03:49:11;14.52;;;11.25;;
21034;SDS011;10676;50.848;3.272;2022-12-29T03:51:37;15.25;;;14.02;;
21034;SDS011;10676;50.848;3.272;2022-12-29T03:54:03;12.75;;;11.63;;
21034;SDS011;10676;50.848;3.272;2022-12-29T03:56:28;12.82;;;11.63;;
21034;SDS011;10676;50.848;3.272;2022-12-29T03:58:54;13.40;;;12.32;;
21034;SDS011;10676;50.848;3.272;2022-12-29T04:01:20;17.25;;;15.73;;
21034;SDS011;10676;50.848;3.272;2022-12-29T04:03:45;13.55;;;12.18;;
21034;SDS011;10676;50.848;3.272;2022-12-29T04:06:11;13.43;;;12.23;;
21034;SDS011;10676;50.848;3.272;2022-12-29T04:08:36;13.18;;;11.80;;
21034;SDS011;10676;50.848;3.272;2022-12-29T04:11:02;14.30;;;12.50;;
21034;SDS011;10676;50.848;3.272;2022-12-29T04:13:28;12.98;;;11.70;;
21034;SDS011;10676;50.848;3.272;2022-12-29T04:15:54;18.30;;;13.05;;
21034;SDS011;10676;50.848;3.272;2022-12-29T04:18:19;13.20;;;12.15;;
21034;SDS011;10676;50.848;3.272;2022-12-29T04:20:45;16.42;;;11.85;;
21034;SDS011;10676;50.848;3.272;2022-12-29T04:23:27;15.82;;;13.38;;
21034;SDS011;10676;50.848;3.272;2022-12-29T04:25:54;14.68;;;13.40;;
21034;SDS011;10676;50.848;3.272;2022-12-29T04:28:19;14.15;;;12.82;;
21034;SDS011;10676;50.848;3.272;2022-12-29T04:30:45;13.63;;;12.35;;
21034;SDS011;10676;50.848;3.272;2022-12-29T04:33:12;13.98;;;12.77;;
21034;SDS011;10676;50.848;3.272;2022-12-29T04:35:37;15.38;;;14.05;;
21034;SDS011;10676;50.848;3.272;2022-12-29T04:38:03;14.95;;;13.68;;
21034;SDS011;10676;50.848;3.272;2022-12-29T04:40:29;14.20;;;13.27;;
21034;SDS011;10676;50.848;3.272;2022-12-29T04:42:54;14.75;;;13.57;;
21034;SDS011;10676;50.848;3.272;2022-12-29T04:45:20;14.15;;;12.98;;
21034;SDS011;10676;50.848;3.272;2022-12-29T04:47:46;14.63;;;13.25;;
21034;SDS011;10676;50.848;3.272;2022-12-29T04:50:11;15.15;;;13.75;;
21034;SDS011;10676;50.848;3.272;2022-12-29T04:52:37;14.45;;;12.50;;
21034;SDS011;10676;50.848;3.272;2022-12-29T04:55:03;14.40;;;13.32;;
21034;SDS011;10676;50.848;3.272;2022-12-29T04:57:30;13.00;;;11.93;;
21034;SDS011;10676;50.848;3.272;2022-12-29T04:59:55;15.93;;;14.45;;
21034;SDS011;10676;50.848;3.272;2022-12-29T05:02:21;13.85;;;12.38;;
21034;SDS011;10676;50.848;3.272;2022-12-29T05:04:47;14.05;;;12.63;;
21034;SDS011;10676;50.848;3.272;2022-12-29T05:07:13;14.45;;;13.10;;
21034;SDS011;10676;50.848;3.272;2022-12-29T05:09:39;15.35;;;14.07;;
21034;SDS011;10676;50.848;3.272;2022-12-29T05:12:04;15.30;;;14.18;;
21034;SDS011;10676;50.848;3.272;2022-12-29T05:14:30;13.32;;;12.27;;
21034;SDS011;10676;50.848;3.272;2022-12-29T05:16:56;24.55;;;22.55;;
21034;SDS011;10676;50.848;3.272;2022-12-29T05:19:21;16.58;;;14.02;;
21034;SDS011;10676;50.848;3.272;2022-12-29T05:21:47;16.25;;;15.13;;
21034;SDS011;10676;50.848;3.272;2022-12-29T05:24:13;16.02;;;13.95;;
21034;SDS011;10676;50.848;3.272;2022-12-29T05:26:40;15.10;;;13.82;;
21034;SDS011;10676;50.848;3.272;2022-12-29T05:29:06;16.55;;;15.10;;
21034;SDS011;10676;50.848;3.272;2022-12-29T05:31:31;15.73;;;14.32;;
21034;SDS011;10676;50.848;3.272;2022-12-29T05:33:57;15.18;;;13.93;;
21034;SDS011;10676;50.848;3.272;2022-12-29T05:36:23;17.55;;;15.55;;
21034;SDS011;10676;50.848;3.272;2022-12-29T05:38:48;15.93;;;14.38;;
21034;SDS011;10676;50.848;3.272;2022-12-29T05:41:14;21.95;;;16.13;;
21034;SDS011;10676;50.848;3.272;2022-12-29T05:43:40;15.25;;;13.85;;
21034;SDS011;10676;50.848;3.272;2022-12-29T05:46:05;19.95;;;17.63;;
21034;SDS011;10676;50.848;3.272;2022-12-29T05:48:31;19.73;;;17.80;;
21034;SDS011;10676;50.848;3.272;2022-12-29T05:50:56;19.63;;;17.98;;
21034;SDS011;10676;50.848;3.272;2022-12-29T05:53:22;25.00;;;23.10;;
21034;SDS011;10676;50.848;3.272;2022-12-29T05:55:48;18.13;;;16.60;;
21034;SDS011;10676;50.848;3.272;2022-12-29T05:58:14;18.15;;;16.55;;
21034;SDS011;10676;50.848;3.272;2022-12-29T06:00:40;1999.90;;;999.90;;
21034;SDS011;10676;50.848;3.272;2022-12-29T06:03:06;1999.90;;;999.90;;
21034;SDS011;10676;50.848;3.272;2022-12-29T06:05:31;1999.90;;;999.90;;
21034;SDS011;10676;50.848;3.272;2022-12-29T06:07:57;1999.90;;;999.90;;
21034;SDS011;10676;50.848;3.272;2022-12-29T06:10:23;1999.90;;;999.90;;
21034;SDS011;10676;50.848;3.272;2022-12-29T06:12:48;1999.90;;;999.90;;
21034;SDS011;10676;50.848;3.272;2022-12-29T06:15:14;1999.90;;;999.90;;
21034;SDS011;10676;50.848;3.272;2022-12-29T06:17:40;1999.90;;;999.90;;
21034;SDS011;10676;50.848;3.272;2022-12-29T06:20:06;1999.90;;;999.90;;
21034;SDS011;10676;50.848;3.272;2022-12-29T06:22:32;1999.90;;;999.90;;
21034;SDS011;10676;50.848;3.272;2022-12-29T06:24:58;1999.90;;;999.90;;
21034;SDS011;10676;50.848;3.272;2022-12-29T06:27:24;1999.90;;;999.90;;
21034;SDS011;10676;50.848;3.272;2022-12-29T06:29:50;1999.90;;;999.90;;
21034;SDS011;10676;50.848;3.272;2022-12-29T06:32:16;1999.90;;;999.90;;
21034;SDS011;10676;50.848;3.272;2022-12-29T06:34:42;1999.90;;;999.90;;
21034;SDS011;10676;50.848;3.272;2022-12-29T06:37:09;1999.90;;;999.90;;
21034;SDS011;10676;50.848;3.272;2022-12-29T06:39:35;1999.90;;;999.90;;
21034;SDS011;10676;50.848;3.272;2022-12-29T06:42:01;1999.90;;;999.90;;
21034;SDS011;10676;50.848;3.272;2022-12-29T06:44:26;1999.90;;;999.90;;
21034;SDS011;10676;50.848;3.272;2022-12-29T06:46:52;1999.90;;;999.90;;
21034;SDS011;10676;50.848;3.272;2022-12-29T06:49:18;1999.90;;;999.90;;
21034;SDS011;10676;50.848;3.272;2022-12-29T06:51:43;1999.90;;;999.90;;
21034;SDS011;10676;50.848;3.272;2022-12-29T06:54:09;1999.90;;;999.90;;
21034;SDS011;10676;50.848;3.272;2022-12-29T06:56:35;1999.90;;;999.90;;
21034;SDS011;10676;50.848;3.272;2022-12-29T06:59:00;1999.90;;;999.90;;
21034;SDS011;10676;50.848;3.272;2022-12-29T07:01:26;1999.90;;;999.90;;
21034;SDS011;10676;50.848;3.272;2022-12-29T07:03:52;1999.90;;;999.90;;
21034;SDS011;10676;50.848;3.272;2022-12-29T07:06:21;1999.90;;;999.90;;
21034;SDS011;10676;50.848;3.272;2022-12-29T07:08:53;1999.90;;;999.90;;
21034;SDS011;10676;50.848;3.272;2022-12-29T07:11:20;1999.90;;;999.90;;
21034;SDS011;10676;50.848;3.272;2022-12-29T07:13:46;1999.90;;;999.90;;
21034;SDS011;10676;50.848;3.272;2022-12-29T07:16:12;1999.90;;;999.90;;
21034;SDS011;10676;50.848;3.272;2022-12-29T07:18:37;1999.90;;;999.90;;
21034;SDS011;10676;50.848;3.272;2022-12-29T07:21:03;1999.90;;;999.90;;
21034;SDS011;10676;50.848;3.272;2022-12-29T07:23:29;1999.90;;;999.90;;
21034;SDS011;10676;50.848;3.272;2022-12-29T07:25:59;1999.90;;;999.90;;
21034;SDS011;10676;50.848;3.272;2022-12-29T07:28:25;1999.90;;;999.90;;
21034;SDS011;10676;50.848;3.272;2022-12-29T07:30:51;1999.90;;;999.90;;
21034;SDS011;10676;50.848;3.272;2022-12-29T07:33:16;1999.90;;;999.90;;
21034;SDS011;10676;50.848;3.272;2022-12-29T07:35:42;1999.90;;;999.90;;
21034;SDS011;10676;50.848;3.272;2022-12-29T07:38:08;1999.90;;;999.90;;
21034;SDS011;10676;50.848;3.272;2022-12-29T07:40:33;1999.90;;;999.90;;
21034;SDS011;10676;50.848;3.272;2022-12-29T07:43:02;1999.90;;;999.90;;
21034;SDS011;10676;50.848;3.272;2022-12-29T07:45:29;1999.90;;;999.90;;
21034;SDS011;10676;50.848;3.272;2022-12-29T07:47:54;1999.90;;;999.90;;
21034;SDS011;10676;50.848;3.272;2022-12-29T07:50:23;1999.90;;;999.90;;
21034;SDS011;10676;50.848;3.272;2022-12-29T07:52:49;1999.90;;;999.90;;
21034;SDS011;10676;50.848;3.272;2022-12-29T07:55:15;1999.90;;;999.90;;
21034;SDS011;10676;50.848;3.272;2022-12-29T07:57:41;1999.90;;;999.90;;
21034;SDS011;10676;50.848;3.272;2022-12-29T08:00:06;1999.90;;;999.90;;
21034;SDS011;10676;50.848;3.272;2022-12-29T08:02:33;1999.90;;;999.90;;
21034;SDS011;10676;50.848;3.272;2022-12-29T08:04:58;1999.90;;;999.90;;
21034;SDS011;10676;50.848;3.272;2022-12-29T08:07:24;1999.90;;;999.90;;
21034;SDS011;10676;50.848;3.272;2022-12-29T08:09:50;1999.90;;;999.90;;
21034;SDS011;10676;50.848;3.272;2022-12-29T08:12:15;1999.90;;;999.90;;
21034;SDS011;10676;50.848;3.272;2022-12-29T08:14:41;1999.90;;;999.90;;
21034;SDS011;10676;50.848;3.272;2022-12-29T08:17:07;1999.90;;;999.90;;
21034;SDS011;10676;50.848;3.272;2022-12-29T08:19:32;1999.90;;;999.90;;
21034;SDS011;10676;50.848;3.272;2022-12-29T08:21:58;1999.90;;;999.90;;
21034;SDS011;10676;50.848;3.272;2022-12-29T08:24:23;1999.90;;;999.90;;
21034;SDS011;10676;50.848;3.272;2022-12-29T08:26:49;1999.90;;;999.90;;
21034;SDS011;10676;50.848;3.272;2022-12-29T08:29:18;1999.90;;;999.90;;
21034;SDS011;10676;50.848;3.272;2022-12-29T08:31:47;1999.90;;;999.90;;
21034;SDS011;10676;50.848;3.272;2022-12-29T08:34:13;1999.90;;;999.90;;
21034;SDS011;10676;50.848;3.272;2022-12-29T08:36:39;1999.90;;;999.90;;
21034;SDS011;10676;50.848;3.272;2022-12-29T08:39:04;1999.90;;;999.90;;
21034;SDS011;10676;50.848;3.272;2022-12-29T08:41:30;19.17;;;16.85;;
21034;SDS011;10676;50.848;3.272;2022-12-29T08:43:57;18.65;;;13.93;;
21034;SDS011;10676;50.848;3.272;2022-12-29T08:46:22;18.92;;;9.73;;
21034;SDS011;10676;50.848;3.272;2022-12-29T08:48:48;16.27;;;12.25;;
21034;SDS011;10676;50.848;3.272;2022-12-29T08:51:14;17.38;;;14.48;;
21034;SDS011;10676;50.848;3.272;2022-12-29T08:53:39;23.38;;;12.98;;
21034;SDS011;10676;50.848;3.272;2022-12-29T08:56:05;17.63;;;11.02;;
21034;SDS011;10676;50.848;3.272;2022-12-29T08:58:31;18.27;;;11.20;;
21034;SDS011;10676;50.848;3.272;2022-12-29T09:00:57;16.75;;;14.98;;
21034;SDS011;10676;50.848;3.272;2022-12-29T09:03:23;17.58;;;12.57;;
21034;SDS011;10676;50.848;3.272;2022-12-29T09:05:50;19.63;;;15.23;;
21034;SDS011;10676;50.848;3.272;2022-12-29T09:08:17;14.65;;;13.13;;
21034;SDS011;10676;50.848;3.272;2022-12-29T09:10:44;21.05;;;12.73;;
21034;SDS011;10676;50.848;3.272;2022-12-29T09:13:10;23.05;;;16.63;;
21034;SDS011;10676;50.848;3.272;2022-12-29T09:15:37;16.88;;;10.15;;
21034;SDS011;10676;50.848;3.272;2022-12-29T09:18:03;22.13;;;12.68;;
21034;SDS011;10676;50.848;3.272;2022-12-29T09:20:29;16.15;;;12.00;;
21034;SDS011;10676;50.848;3.272;2022-12-29T09:22:55;22.45;;;13.20;;
21034;SDS011;10676;50.848;3.272;2022-12-29T09:25:21;18.00;;;12.18;;
21034;SDS011;10676;50.848;3.272;2022-12-29T09:27:49;21.48;;;12.65;;
21034;SDS011;10676;50.848;3.272;2022-12-29T09:30:17;14.23;;;12.88;;
21034;SDS011;10676;50.848;3.272;2022-12-29T09:32:44;15.43;;;12.38;;
21034;SDS011;10676;50.848;3.272;2022-12-29T09:35:09;21.17;;;12.77;;
21034;SDS011;10676;50.848;3.272;2022-12-29T09:37:36;14.45;;;11.20;;
21034;SDS011;10676;50.848;3.272;2022-12-29T09:40:02;17.98;;;12.45;;
21034;SDS011;10676;50.848;3.272;2022-12-29T09:47:41;20.63;;;12.35;;
21034;SDS011;10676;50.848;3.272;2022-12-29T09:50:30;18.25;;;10.32;;
21034;SDS011;10676;50.848;3.272;2022-12-29T09:55:36;13.68;;;10.65;;
21034;SDS011;10676;50.848;3.272;2022-12-29T09:58:10;19.27;;;10.93;;
21034;SDS011;10676;50.848;3.272;2022-12-29T10:00:52;19.45;;;11.32;;
21034;SDS011;10676;50.848;3.272;2022-12-29T10:03:24;29.13;;;23.20;;
21034;SDS011;10676;50.848;3.272;2022-12-29T10:06:01;17.63;;;12.25;;
21034;SDS011;10676;50.848;3.272;2022-12-29T10:08:57;23.02;;;12.80;;
21034;SDS011;10676;50.848;3.272;2022-12-29T10:11:46;16.45;;;14.80;;
21034;SDS011;10676;50.848;3.272;2022-12-29T10:22:32;14.18;;;11.75;;
21034;SDS011;10676;50.848;3.272;2022-12-29T10:25:00;13.10;;;11.13;;
21034;SDS011;10676;50.848;3.272;2022-12-29T10:27:30;16.98;;;11.90;;
21034;SDS011;10676;50.848;3.272;2022-12-29T10:29:57;14.95;;;12.52;;
21034;SDS011;10676;50.848;3.272;2022-12-29T10:32:32;17.55;;;14.70;;
21034;SDS011;10676;50.848;3.272;2022-12-29T10:35:26;17.50;;;10.75;;
21034;SDS011;10676;50.848;3.272;2022-12-29T10:37:54;21.52;;;19.25;;
21034;SDS011;10676;50.848;3.272;2022-12-29T10:43:58;10.98;;;10.02;;
21034;SDS011;10676;50.848;3.272;2022-12-29T10:46:30;12.35;;;10.73;;
21034;SDS011;10676;50.848;3.272;2022-12-29T10:48:59;16.98;;;15.00;;
21034;SDS011;10676;50.848;3.272;2022-12-29T10:51:34;12.75;;;11.82;;
21034;SDS011;10676;50.848;3.272;2022-12-29T10:54:14;14.27;;;10.90;;
21034;SDS011;10676;50.848;3.272;2022-12-29T10:56:54;15.25;;;13.68;;
21034;SDS011;10676;50.848;3.272;2022-12-29T10:59:31;24.25;;;22.40;;
21034;SDS011;10676;50.848;3.272;2022-12-29T11:07:19;14.45;;;10.32;;
21034;SDS011;10676;50.848;3.272;2022-12-29T11:09:46;14.50;;;10.32;;
21034;SDS011;10676;50.848;3.272;2022-12-29T11:12:19;12.43;;;10.95;;
21034;SDS011;10676;50.848;3.272;2022-12-29T11:15:02;16.15;;;14.60;;
21034;SDS011;10676;50.848;3.272;2022-12-29T11:17:42;19.58;;;10.93;;
21034;SDS011;10676;50.848;3.272;2022-12-29T11:20:42;20.00;;;11.00;;
21034;SDS011;10676;50.848;3.272;2022-12-29T11:23:28;15.85;;;10.38;;
21034;SDS011;10676;50.848;3.272;2022-12-29T11:28:36;18.13;;;11.43;;
21034;SDS011;10676;50.848;3.272;2022-12-29T11:31:03;16.50;;;13.30;;
21034;SDS011;10676;50.848;3.272;2022-12-29T11:33:30;15.00;;;11.52;;
21034;SDS011;10676;50.848;3.272;2022-12-29T11:35:58;18.30;;;12.52;;
21034;SDS011;10676;50.848;3.272;2022-12-29T11:38:31;16.23;;;13.18;;
21034;SDS011;10676;50.848;3.272;2022-12-29T11:41:00;16.05;;;11.75;;
21034;SDS011;10676;50.848;3.272;2022-12-29T11:43:30;13.82;;;11.25;;
21034;SDS011;10676;50.848;3.272;2022-12-29T11:45:58;18.88;;;12.98;;
21034;SDS011;10676;50.848;3.272;2022-12-29T11:48:26;17.63;;;14.45;;
21034;SDS011;10676;50.848;3.272;2022-12-29T11:50:54;12.93;;;11.73;;
21034;SDS011;10676;50.848;3.272;2022-12-29T11:56:08;19.27;;;12.75;;
21034;SDS011;10676;50.848;3.272;2022-12-29T11:58:37;22.98;;;20.90;;
21034;SDS011;10676;50.848;3.272;2022-12-29T12:03:40;13.05;;;11.77;;
21034;SDS011;10676;50.848;3.272;2022-12-29T12:06:16;13.68;;;12.65;;
21034;SDS011;10676;50.848;3.272;2022-12-29T12:08:56;12.77;;;11.88;;
21034;SDS011;10676;50.848;3.272;2022-12-29T12:11:37;16.73;;;15.55;;
21034;SDS011;10676;50.848;3.272;2022-12-29T12:14:19;17.60;;;16.40;;
21034;SDS011;10676;50.848;3.272;2022-12-29T12:16:52;17.48;;;16.13;;
21034;SDS011;10676;50.848;3.272;2022-12-29T12:30:40;14.90;;;13.70;;
21034;SDS011;10676;50.848;3.272;2022-12-29T13:13:52;13.73;;;12.80;;
21034;SDS011;10676;50.848;3.272;2022-12-29T13:22:21;11.80;;;10.85;;
21034;SDS011;10676;50.848;3.272;2022-12-29T13:30:20;14.38;;;13.13;;
21034;SDS011;10676;50.848;3.272;2022-12-29T13:35:40;24.90;;;22.83;;
21034;SDS011;10676;50.848;3.272;2022-12-29T13:40:53;17.20;;;15.95;;
21034;SDS011;10676;50.848;3.272;2022-12-29T13:43:24;16.17;;;14.85;;
21034;SDS011;10676;50.848;3.272;2022-12-29T13:45:57;15.48;;;13.90;;
21034;SDS011;10676;50.848;3.272;2022-12-29T13:48:30;14.77;;;13.25;;
21034;SDS011;10676;50.848;3.272;2022-12-29T13:51:23;13.68;;;12.35;;
21034;SDS011;10676;50.848;3.272;2022-12-29T13:59:36;13.27;;;12.15;;
21034;SDS011;10676;50.848;3.272;2022-12-29T14:02:26;13.05;;;12.10;;
21034;SDS011;10676;50.848;3.272;2022-12-29T14:05:03;11.95;;;11.13;;
21034;SDS011;10676;50.848;3.272;2022-12-29T14:08:02;13.15;;;12.25;;
21034;SDS011;10676;50.848;3.272;2022-12-29T14:10:50;12.82;;;11.88;;
21034;SDS011;10676;50.848;3.272;2022-12-29T14:15:45;13.00;;;11.88;;
21034;SDS011;10676;50.848;3.272;2022-12-29T14:18:29;12.57;;;11.50;;
21034;SDS011;10676;50.848;3.272;2022-12-29T14:20:58;21.30;;;19.35;;
21034;SDS011;10676;50.848;3.272;2022-12-29T14:28:54;15.18;;;13.98;;
21034;SDS011;10676;50.848;3.272;2022-12-29T14:36:43;19.25;;;11.65;;
21034;SDS011;10676;50.848;3.272;2022-12-29T14:44:50;36.95;;;33.80;;
21034;SDS011;10676;50.848;3.272;2022-12-29T14:49:56;15.55;;;14.02;;
21034;SDS011;10676;50.848;3.272;2022-12-29T14:52:41;19.38;;;14.05;;
21034;SDS011;10676;50.848;3.272;2022-12-29T14:58:20;17.70;;;14.80;;
21034;SDS011;10676;50.848;3.272;2022-12-29T15:01:02;14.88;;;13.65;;
21034;SDS011;10676;50.848;3.272;2022-12-29T15:03:29;14.23;;;12.82;;
21034;SDS011;10676;50.848;3.272;2022-12-29T15:05:55;11.55;;;10.65;;
21034;SDS011;10676;50.848;3.272;2022-12-29T15:08:30;12.75;;;11.73;;
21034;SDS011;10676;50.848;3.272;2022-12-29T15:11:10;14.88;;;13.27;;
21034;SDS011;10676;50.848;3.272;2022-12-29T15:13:47;15.70;;;14.27;;
21034;SDS011;10676;50.848;3.272;2022-12-29T15:18:51;14.40;;;13.05;;
21034;SDS011;10676;50.848;3.272;2022-12-29T15:21:19;15.02;;;11.82;;
21034;SDS011;10676;50.848;3.272;2022-12-29T15:23:51;18.55;;;12.23;;
21034;SDS011;10676;50.848;3.272;2022-12-29T15:26:17;13.13;;;11.95;;
21034;SDS011;10676;50.848;3.272;2022-12-29T15:28:47;15.57;;;12.20;;
21034;SDS011;10676;50.848;3.272;2022-12-29T15:31:18;17.48;;;13.30;;
21034;SDS011;10676;50.848;3.272;2022-12-29T15:33:46;15.35;;;13.65;;
21034;SDS011;10676;50.848;3.272;2022-12-29T15:36:17;11.48;;;10.60;;
21034;SDS011;10676;50.848;3.272;2022-12-29T15:38:48;17.85;;;13.07;;
21034;SDS011;10676;50.848;3.272;2022-12-29T15:46:43;18.60;;;13.52;;
21034;SDS011;10676;50.848;3.272;2022-12-29T15:49:11;15.23;;;13.50;;
21034;SDS011;10676;50.848;3.272;2022-12-29T15:51:40;17.05;;;14.65;;
21034;SDS011;10676;50.848;3.272;2022-12-29T15:54:06;13.95;;;12.63;;
21034;SDS011;10676;50.848;3.272;2022-12-29T15:56:41;19.08;;;12.63;;
21034;SDS011;10676;50.848;3.272;2022-12-29T15:59:23;16.77;;;14.35;;
21034;SDS011;10676;50.848;3.272;2022-12-29T16:01:51;21.58;;;14.68;;
21034;SDS011;10676;50.848;3.272;2022-12-29T16:04:18;18.25;;;13.48;;
21034;SDS011;10676;50.848;3.272;2022-12-29T16:06:45;17.33;;;11.65;;
21034;SDS011;10676;50.848;3.272;2022-12-29T16:11:58;19.45;;;12.48;;
21034;SDS011;10676;50.848;3.272;2022-12-29T16:14:31;20.45;;;13.30;;
21034;SDS011;10676;50.848;3.272;2022-12-29T16:17:12;27.38;;;12.55;;
21034;SDS011;10676;50.848;3.272;2022-12-29T16:19:47;27.30;;;13.95;;
21034;SDS011;10676;50.848;3.272;2022-12-29T16:22:41;20.88;;;15.60;;
21034;SDS011;10676;50.848;3.272;2022-12-29T16:27:49;24.85;;;13.55;;
21034;SDS011;10676;50.848;3.272;2022-12-29T16:32:48;22.95;;;12.02;;
21034;SDS011;10676;50.848;3.272;2022-12-29T16:35:17;15.27;;;12.25;;
21034;SDS011;10676;50.848;3.272;2022-12-29T16:40:53;60.28;;;41.58;;
21034;SDS011;10676;50.848;3.272;2022-12-29T16:43:42;22.48;;;11.40;;
21034;SDS011;10676;50.848;3.272;2022-12-29T16:46:15;22.20;;;10.70;;
21034;SDS011;10676;50.848;3.272;2022-12-29T16:48:55;16.90;;;11.00;;
21034;SDS011;10676;50.848;3.272;2022-12-29T16:51:35;15.77;;;11.18;;
21034;SDS011;10676;50.848;3.272;2022-12-29T16:54:02;20.52;;;12.73;;
21034;SDS011;10676;50.848;3.272;2022-12-29T16:56:30;17.60;;;11.55;;
21034;SDS011;10676;50.848;3.272;2022-12-29T16:59:05;15.82;;;10.75;;
21034;SDS011;10676;50.848;3.272;2022-12-29T17:01:50;13.60;;;10.43;;
21034;SDS011;10676;50.848;3.272;2022-12-29T17:04:16;18.15;;;11.15;;
21034;SDS011;10676;50.848;3.272;2022-12-29T17:06:42;22.08;;;13.60;;
21034;SDS011;10676;50.848;3.272;2022-12-29T17:09:21;14.05;;;12.27;;
21034;SDS011;10676;50.848;3.272;2022-12-29T17:11:49;31.55;;;19.20;;
21034;SDS011;10676;50.848;3.272;2022-12-29T17:17:12;28.58;;;24.52;;
21034;SDS011;10676;50.848;3.272;2022-12-29T17:19:54;28.55;;;19.00;;
21034;SDS011;10676;50.848;3.272;2022-12-29T17:22:24;20.13;;;13.70;;
21034;SDS011;10676;50.848;3.272;2022-12-29T17:24:52;21.63;;;12.35;;
21034;SDS011;10676;50.848;3.272;2022-12-29T17:27:24;20.95;;;13.57;;
21034;SDS011;10676;50.848;3.272;2022-12-29T17:29:50;17.13;;;14.07;;
21034;SDS011;10676;50.848;3.272;2022-12-29T17:32:18;22.08;;;13.48;;
21034;SDS011;10676;50.848;3.272;2022-12-29T17:34:44;19.23;;;13.75;;
21034;SDS011;10676;50.848;3.272;2022-12-29T17:39:57;14.57;;;13.20;;
21034;SDS011;10676;50.848;3.272;2022-12-29T17:42:23;16.88;;;12.88;;
21034;SDS011;10676;50.848;3.272;2022-12-29T17:44:48;15.30;;;12.63;;
21034;SDS011;10676;50.848;3.272;2022-12-29T17:47:14;19.23;;;17.48;;
21034;SDS011;10676;50.848;3.272;2022-12-29T17:49:40;13.23;;;11.52;;
21034;SDS011;10676;50.848;3.272;2022-12-29T17:52:10;25.13;;;15.10;;
21034;SDS011;10676;50.848;3.272;2022-12-29T17:54:48;15.55;;;14.07;;
21034;SDS011;10676;50.848;3.272;2022-12-29T17:57:16;15.88;;;14.45;;
21034;SDS011;10676;50.848;3.272;2022-12-29T17:59:43;17.65;;;14.73;;